sensor_id;sensor_type;location;lat;lon;timestamp;temperature;humidity
11934;DHT22;6026;48.784;9.198;2023-07-29T00:00:49;17.20;99.90
11934;DHT22;6026;48.784;9.198;2023-07-29T00:03:15;17.20;99.90
11934;DHT22;6026;48.784;9.198;2023-07-29T00:05:41;17.20;99.90
11934;DHT22;6026;48.784;9.198;2023-07-29T00:08:06;17.20;99.90
11934;DHT22;6026;48.784;9.198;2023-07-29T00:10:34;17.20;99.90
11934;DHT22;6026;48.784;9.198;2023-07-29T00:13:01;17.30;99.90
11934;DHT22;6026;48.784;9.198;2023-07-29T00:15:26;17.30;99.90
11934;DHT22;6026;48.784;9.198;2023-07-29T00:17:52;17.30;99.90
11934;DHT22;6026;48.784;9.198;2023-07-29T00:20:17;17.30;99.90
11934;DHT22;6026;48.784;9.198;2023-07-29T00:22:43;17.30;99.90
11934;DHT22;6026;48.784;9.198;2023-07-29T00:25:09;17.40;99.90
11934;DHT22;6026;48.784;9.198;2023-07-29T00:27:34;17.40;99.90
11934;DHT22;6026;48.784;9.198;2023-07-29T00:30:00;17.30;99.90
11934;DHT22;6026;48.784;9.198;2023-07-29T00:32:29;17.30;99.90
11934;DHT22;6026;48.784;9.198;2023-07-29T00:34:54;17.30;99.90
11934;DHT22;6026;48.784;9.198;2023-07-29T00:37:21;17.40;99.90
11934;DHT22;6026;48.784;9.198;2023-07-29T00:39:46;17.40;99.90
11934;DHT22;6026;48.784;9.198;2023-07-29T00:42:12;17.40;99.90
11934;DHT22;6026;48.784;9.198;2023-07-29T00:44:37;17.40;99.90
11934;DHT22;6026;48.784;9.198;2023-07-29T00:47:04;17.40;99.90
11934;DHT22;6026;48.784;9.198;2023-07-29T00:49:30;17.40;99.90
11934;DHT22;6026;48.784;9.198;2023-07-29T00:51:56;17.40;99.90
11934;DHT22;6026;48.784;9.198;2023-07-29T00:54:23;17.40;99.90
11934;DHT22;6026;48.784;9.198;2023-07-29T00:56:49;17.40;99.90
11934;DHT22;6026;48.784;9.198;2023-07-29T00:59:15;17.40;99.90
11934;DHT22;6026;48.784;9.198;2023-07-29T01:01:40;17.30;99.90
11934;DHT22;6026;48.784;9.198;2023-07-29T01:04:06;17.40;99.90
11934;DHT22;6026;48.784;9.198;2023-07-29T01:06:56;17.30;99.90
11934;DHT22;6026;48.784;9.198;2023-07-29T01:15:01;17.30;99.90
11934;DHT22;6026;48.784;9.198;2023-07-29T01:17:33;17.30;99.90
11934;DHT22;6026;48.784;9.198;2023-07-29T01:20:08;17.30;99.90
11934;DHT22;6026;48.784;9.198;2023-07-29T01:22:35;17.30;99.90
11934;DHT22;6026;48.784;9.198;2023-07-29T01:25:03;17.30;99.90
11934;DHT22;6026;48.784;9.198;2023-07-29T01:27:29;17.30;99.90
11934;DHT22;6026;48.784;9.198;2023-07-29T01:29:56;17.30;99.90
11934;DHT22;6026;48.784;9.198;2023-07-29T01:35:31;17.30;99.90
11934;DHT22;6026;48.784;9.198;2023-07-29T01:38:28;17.30;99.90
11934;DHT22;6026;48.784;9.198;2023-07-29T01:40:58;17.40;99.90
11934;DHT22;6026;48.784;9.198;2023-07-29T01:43:27;17.40;99.90
11934;DHT22;6026;48.784;9.198;2023-07-29T01:45:53;17.40;99.90
11934;DHT22;6026;48.784;9.198;2023-07-29T01:48:19;17.40;99.90
11934;DHT22;6026;48.784;9.198;2023-07-29T01:50:45;17.40;99.90
11934;DHT22;6026;48.784;9.198;2023-07-29T01:53:10;17.40;99.90
11934;DHT22;6026;48.784;9.198;2023-07-29T01:55:36;17.40;99.90
11934;DHT22;6026;48.784;9.198;2023-07-29T01:58:01;17.50;99.90
11934;DHT22;6026;48.784;9.198;2023-07-29T02:00:27;17.50;99.90
11934;DHT22;6026;48.784;9.198;2023-07-29T02:02:52;17.50;99.90
11934;DHT22;6026;48.784;9.198;2023-07-29T02:05:18;17.50;99.90
11934;DHT22;6026;48.784;9.198;2023-07-29T02:07:44;17.50;99.90
11934;DHT22;6026;48.784;9.198;2023-07-29T02:10:09;17.50;99.90
11934;DHT22;6026;48.784;9.198;2023-07-29T02:12:35;17.50;99.90
11934;DHT22;6026;48.784;9.198;2023-07-29T02:15:00;17.50;99.90
11934;DHT22;6026;48.784;9.198;2023-07-29T02:17:26;17.50;99.90
11934;DHT22;6026;48.784;9.198;2023-07-29T02:19:52;17.60;99.90
11934;DHT22;6026;48.784;9.198;2023-07-29T02:22:17;17.50;99.90
11934;DHT22;6026;48.784;9.198;2023-07-29T02:24:44;17.50;99.90
11934;DHT22;6026;48.784;9.198;2023-07-29T02:27:10;17.40;99.90
11934;DHT22;6026;48.784;9.198;2023-07-29T02:29:35;17.40;99.90
11934;DHT22;6026;48.784;9.198;2023-07-29T02:32:02;17.40;99.90
11934;DHT22;6026;48.784;9.198;2023-07-29T02:34:28;17.40;99.90
11934;DHT22;6026;48.784;9.198;2023-07-29T02:36:53;17.30;99.90
11934;DHT22;6026;48.784;9.198;2023-07-29T02:39:19;17.30;99.90
11934;DHT22;6026;48.784;9.198;2023-07-29T02:41:45;17.30;99.90
11934;DHT22;6026;48.784;9.198;2023-07-29T02:44:11;17.30;99.90
11934;DHT22;6026;48.784;9.198;2023-07-29T02:46:36;17.30;99.90
11934;DHT22;6026;48.784;9.198;2023-07-29T02:49:02;17.30;99.90
11934;DHT22;6026;48.784;9.198;2023-07-29T02:51:31;17.30;99.90
11934;DHT22;6026;48.784;9.198;2023-07-29T02:53:57;17.30;99.90
11934;DHT22;6026;48.784;9.198;2023-07-29T02:56:22;17.30;99.90
11934;DHT22;6026;48.784;9.198;2023-07-29T02:58:48;17.20;99.90
11934;DHT22;6026;48.784;9.198;2023-07-29T03:01:17;17.30;99.90
11934;DHT22;6026;48.784;9.198;2023-07-29T03:03:42;17.30;99.90
11934;DHT22;6026;48.784;9.198;2023-07-29T03:06:10;17.30;99.90
11934;DHT22;6026;48.784;9.198;2023-07-29T03:08:36;17.30;99.90
11934;DHT22;6026;48.784;9.198;2023-07-29T03:11:06;17.30;99.90
11934;DHT22;6026;48.784;9.198;2023-07-29T03:13:32;17.20;99.90
11934;DHT22;6026;48.784;9.198;2023-07-29T03:16:25;17.20;99.90
11934;DHT22;6026;48.784;9.198;2023-07-29T03:18:50;17.20;99.90
11934;DHT22;6026;48.784;9.198;2023-07-29T03:21:16;17.20;99.90
11934;DHT22;6026;48.784;9.198;2023-07-29T03:23:41;17.20;99.90
11934;DHT22;6026;48.784;9.198;2023-07-29T03:26:07;17.20;99.90
11934;DHT22;6026;48.784;9.198;2023-07-29T03:28:40;17.20;99.90
11934;DHT22;6026;48.784;9.198;2023-07-29T03:31:06;17.20;99.90
11934;DHT22;6026;48.784;9.198;2023-07-29T03:33:32;17.30;99.90
11934;DHT22;6026;48.784;9.198;2023-07-29T03:35:57;17.30;99.90
11934;DHT22;6026;48.784;9.198;2023-07-29T03:38:23;17.30;99.90
11934;DHT22;6026;48.784;9.198;2023-07-29T03:40:48;17.30;99.90
11934;DHT22;6026;48.784;9.198;2023-07-29T03:43:14;17.30;99.90
11934;DHT22;6026;48.784;9.198;2023-07-29T03:45:40;17.30;99.90
11934;DHT22;6026;48.784;9.198;2023-07-29T03:48:06;17.40;99.90
11934;DHT22;6026;48.784;9.198;2023-07-29T03:50:34;17.40;99.90
11934;DHT22;6026;48.784;9.198;2023-07-29T03:53:01;17.40;99.90
11934;DHT22;6026;48.784;9.198;2023-07-29T03:55:27;17.30;99.90
11934;DHT22;6026;48.784;9.198;2023-07-29T03:57:52;17.40;99.90
11934;DHT22;6026;48.784;9.198;2023-07-29T04:00:18;17.40;99.90
11934;DHT22;6026;48.784;9.198;2023-07-29T04:02:44;17.40;99.90
11934;DHT22;6026;48.784;9.198;2023-07-29T04:05:11;17.40;99.90
11934;DHT22;6026;48.784;9.198;2023-07-29T04:07:36;17.40;99.90
11934;DHT22;6026;48.784;9.198;2023-07-29T04:10:02;17.40;99.90
11934;DHT22;6026;48.784;9.198;2023-07-29T04:12:28;17.40;99.90
11934;DHT22;6026;48.784;9.198;2023-07-29T04:14:54;17.40;99.90
11934;DHT22;6026;48.784;9.198;2023-07-29T04:17:19;17.30;99.90
11934;DHT22;6026;48.784;9.198;2023-07-29T04:19:45;17.30;99.90
11934;DHT22;6026;48.784;9.198;2023-07-29T04:22:11;17.20;99.90
11934;DHT22;6026;48.784;9.198;2023-07-29T04:24:37;17.20;99.90
11934;DHT22;6026;48.784;9.198;2023-07-29T04:27:03;17.20;99.90
11934;DHT22;6026;48.784;9.198;2023-07-29T04:29:29;17.20;99.90
11934;DHT22;6026;48.784;9.198;2023-07-29T04:31:55;17.30;99.90
11934;DHT22;6026;48.784;9.198;2023-07-29T04:34:20;17.20;99.90
11934;DHT22;6026;48.784;9.198;2023-07-29T04:36:47;17.20;99.90
11934;DHT22;6026;48.784;9.198;2023-07-29T04:39:12;17.20;99.90
11934;DHT22;6026;48.784;9.198;2023-07-29T04:41:38;17.20;99.90
11934;DHT22;6026;48.784;9.198;2023-07-29T04:44:04;17.20;99.90
11934;DHT22;6026;48.784;9.198;2023-07-29T04:46:29;17.20;99.90
11934;DHT22;6026;48.784;9.198;2023-07-29T04:48:55;17.30;99.90
11934;DHT22;6026;48.784;9.198;2023-07-29T04:51:21;17.30;99.90
11934;DHT22;6026;48.784;9.198;2023-07-29T04:53:47;17.30;99.90
11934;DHT22;6026;48.784;9.198;2023-07-29T04:56:12;17.30;99.90
11934;DHT22;6026;48.784;9.198;2023-07-29T04:58:38;17.30;99.90
11934;DHT22;6026;48.784;9.198;2023-07-29T05:01:04;17.30;99.90
11934;DHT22;6026;48.784;9.198;2023-07-29T05:03:30;17.30;99.90
11934;DHT22;6026;48.784;9.198;2023-07-29T05:05:56;17.30;99.90
11934;DHT22;6026;48.784;9.198;2023-07-29T05:08:22;17.30;99.90
11934;DHT22;6026;48.784;9.198;2023-07-29T05:10:51;17.30;99.90
11934;DHT22;6026;48.784;9.198;2023-07-29T05:13:18;17.30;99.90
11934;DHT22;6026;48.784;9.198;2023-07-29T05:15:43;17.30;99.90
11934;DHT22;6026;48.784;9.198;2023-07-29T05:18:09;17.20;99.90
11934;DHT22;6026;48.784;9.198;2023-07-29T05:20:35;17.20;99.90
11934;DHT22;6026;48.784;9.198;2023-07-29T05:23:00;17.40;99.90
11934;DHT22;6026;48.784;9.198;2023-07-29T05:25:26;17.40;99.90
11934;DHT22;6026;48.784;9.198;2023-07-29T05:27:52;17.40;99.90
11934;DHT22;6026;48.784;9.198;2023-07-29T05:30:17;17.50;99.90
11934;DHT22;6026;48.784;9.198;2023-07-29T05:32:43;17.50;99.90
11934;DHT22;6026;48.784;9.198;2023-07-29T05:35:08;17.50;99.90
11934;DHT22;6026;48.784;9.198;2023-07-29T05:37:37;17.40;99.90
11934;DHT22;6026;48.784;9.198;2023-07-29T05:40:03;17.50;99.90
11934;DHT22;6026;48.784;9.198;2023-07-29T05:42:29;17.50;99.90
11934;DHT22;6026;48.784;9.198;2023-07-29T05:44:55;17.50;99.90
11934;DHT22;6026;48.784;9.198;2023-07-29T05:47:20;17.60;99.90
11934;DHT22;6026;48.784;9.198;2023-07-29T05:49:46;17.70;99.90
11934;DHT22;6026;48.784;9.198;2023-07-29T05:52:11;17.80;99.90
11934;DHT22;6026;48.784;9.198;2023-07-29T05:54:37;17.80;99.90
11934;DHT22;6026;48.784;9.198;2023-07-29T05:57:02;17.90;99.90
11934;DHT22;6026;48.784;9.198;2023-07-29T05:59:28;17.90;99.90
11934;DHT22;6026;48.784;9.198;2023-07-29T06:01:54;17.90;99.90
11934;DHT22;6026;48.784;9.198;2023-07-29T06:04:20;18.00;99.90
11934;DHT22;6026;48.784;9.198;2023-07-29T06:06:46;18.20;99.90
11934;DHT22;6026;48.784;9.198;2023-07-29T06:09:11;18.30;99.90
11934;DHT22;6026;48.784;9.198;2023-07-29T06:11:37;18.40;99.90
11934;DHT22;6026;48.784;9.198;2023-07-29T06:14:02;18.60;99.90
11934;DHT22;6026;48.784;9.198;2023-07-29T06:16:28;18.80;99.90
11934;DHT22;6026;48.784;9.198;2023-07-29T06:18:53;19.00;99.90
11934;DHT22;6026;48.784;9.198;2023-07-29T06:21:19;19.10;99.90
11934;DHT22;6026;48.784;9.198;2023-07-29T06:23:45;19.10;99.90
11934;DHT22;6026;48.784;9.198;2023-07-29T06:26:11;19.10;99.90
11934;DHT22;6026;48.784;9.198;2023-07-29T06:28:37;19.20;99.90
11934;DHT22;6026;48.784;9.198;2023-07-29T06:31:02;19.10;99.90
11934;DHT22;6026;48.784;9.198;2023-07-29T06:33:28;19.20;99.90
11934;DHT22;6026;48.784;9.198;2023-07-29T06:35:53;19.20;99.90
11934;DHT22;6026;48.784;9.198;2023-07-29T06:38:19;19.30;99.90
11934;DHT22;6026;48.784;9.198;2023-07-29T06:40:47;19.20;99.90
11934;DHT22;6026;48.784;9.198;2023-07-29T06:43:13;19.20;99.90
11934;DHT22;6026;48.784;9.198;2023-07-29T06:45:39;19.30;99.90
11934;DHT22;6026;48.784;9.198;2023-07-29T06:48:04;19.20;99.90
11934;DHT22;6026;48.784;9.198;2023-07-29T06:50:30;19.20;99.90
11934;DHT22;6026;48.784;9.198;2023-07-29T06:52:55;19.20;99.90
11934;DHT22;6026;48.784;9.198;2023-07-29T06:55:21;19.20;99.90
11934;DHT22;6026;48.784;9.198;2023-07-29T06:57:46;19.20;99.90
11934;DHT22;6026;48.784;9.198;2023-07-29T07:00:12;19.20;99.90
11934;DHT22;6026;48.784;9.198;2023-07-29T07:02:38;19.10;99.90
11934;DHT22;6026;48.784;9.198;2023-07-29T07:05:04;19.10;99.90
11934;DHT22;6026;48.784;9.198;2023-07-29T07:07:30;19.00;99.90
11934;DHT22;6026;48.784;9.198;2023-07-29T07:09:56;18.90;99.90
11934;DHT22;6026;48.784;9.198;2023-07-29T07:12:21;18.80;99.90
11934;DHT22;6026;48.784;9.198;2023-07-29T07:14:47;18.60;99.90
11934;DHT22;6026;48.784;9.198;2023-07-29T07:17:13;18.60;99.90
11934;DHT22;6026;48.784;9.198;2023-07-29T07:19:39;18.50;99.90
11934;DHT22;6026;48.784;9.198;2023-07-29T07:22:04;18.50;99.90
11934;DHT22;6026;48.784;9.198;2023-07-29T07:24:30;18.40;99.90
11934;DHT22;6026;48.784;9.198;2023-07-29T07:26:56;18.40;99.90
11934;DHT22;6026;48.784;9.198;2023-07-29T07:29:21;18.40;99.90
11934;DHT22;6026;48.784;9.198;2023-07-29T07:31:52;18.40;99.90
11934;DHT22;6026;48.784;9.198;2023-07-29T07:34:21;18.50;99.90
11934;DHT22;6026;48.784;9.198;2023-07-29T07:36:47;18.50;99.90
11934;DHT22;6026;48.784;9.198;2023-07-29T07:39:12;18.50;99.90
11934;DHT22;6026;48.784;9.198;2023-07-29T07:41:38;18.60;99.90
11934;DHT22;6026;48.784;9.198;2023-07-29T07:44:04;18.60;99.90
11934;DHT22;6026;48.784;9.198;2023-07-29T07:46:29;18.70;99.90
11934;DHT22;6026;48.784;9.198;2023-07-29T07:48:55;18.80;99.90
11934;DHT22;6026;48.784;9.198;2023-07-29T07:51:20;18.90;99.90
11934;DHT22;6026;48.784;9.198;2023-07-29T07:53:46;19.00;99.90
11934;DHT22;6026;48.784;9.198;2023-07-29T07:56:12;18.90;99.90
11934;DHT22;6026;48.784;9.198;2023-07-29T07:58:38;18.90;99.90
11934;DHT22;6026;48.784;9.198;2023-07-29T08:01:05;19.00;99.90
11934;DHT22;6026;48.784;9.198;2023-07-29T08:03:32;18.90;99.90
11934;DHT22;6026;48.784;9.198;2023-07-29T08:05:58;19.00;99.90
11934;DHT22;6026;48.784;9.198;2023-07-29T08:08:24;19.10;99.90
11934;DHT22;6026;48.784;9.198;2023-07-29T08:10:50;19.20;99.90
11934;DHT22;6026;48.784;9.198;2023-07-29T08:13:15;19.10;99.90
11934;DHT22;6026;48.784;9.198;2023-07-29T08:15:41;19.20;99.90
11934;DHT22;6026;48.784;9.198;2023-07-29T08:18:07;19.30;99.90
11934;DHT22;6026;48.784;9.198;2023-07-29T08:20:32;19.50;99.90
11934;DHT22;6026;48.784;9.198;2023-07-29T08:22:58;20.20;99.90
11934;DHT22;6026;48.784;9.198;2023-07-29T08:25:24;20.50;99.90
11934;DHT22;6026;48.784;9.198;2023-07-29T08:27:49;20.50;99.90
11934;DHT22;6026;48.784;9.198;2023-07-29T08:30:15;20.30;99.90
11934;DHT22;6026;48.784;9.198;2023-07-29T08:32:41;20.20;99.90
11934;DHT22;6026;48.784;9.198;2023-07-29T08:35:07;20.30;99.90
11934;DHT22;6026;48.784;9.198;2023-07-29T08:37:33;20.20;99.90
11934;DHT22;6026;48.784;9.198;2023-07-29T08:39:59;20.30;99.90
11934;DHT22;6026;48.784;9.198;2023-07-29T08:42:29;20.30;99.90
11934;DHT22;6026;48.784;9.198;2023-07-29T08:44:56;20.40;99.90
11934;DHT22;6026;48.784;9.198;2023-07-29T08:47:25;20.50;99.90
11934;DHT22;6026;48.784;9.198;2023-07-29T08:49:51;20.40;99.90
11934;DHT22;6026;48.784;9.198;2023-07-29T08:52:18;20.60;99.90
11934;DHT22;6026;48.784;9.198;2023-07-29T08:54:44;21.00;99.90
11934;DHT22;6026;48.784;9.198;2023-07-29T08:57:10;21.50;99.90
11934;DHT22;6026;48.784;9.198;2023-07-29T08:59:35;22.10;99.90
11934;DHT22;6026;48.784;9.198;2023-07-29T09:02:01;22.60;99.90
11934;DHT22;6026;48.784;9.198;2023-07-29T09:04:27;23.40;99.90
11934;DHT22;6026;48.784;9.198;2023-07-29T09:06:55;24.00;99.90
11934;DHT22;6026;48.784;9.198;2023-07-29T09:09:21;24.20;99.90
11934;DHT22;6026;48.784;9.198;2023-07-29T09:11:48;25.40;99.90
11934;DHT22;6026;48.784;9.198;2023-07-29T09:14:13;25.60;99.90
11934;DHT22;6026;48.784;9.198;2023-07-29T09:16:39;25.90;99.90
11934;DHT22;6026;48.784;9.198;2023-07-29T09:19:05;25.70;99.90
11934;DHT22;6026;48.784;9.198;2023-07-29T09:21:31;25.50;99.90
11934;DHT22;6026;48.784;9.198;2023-07-29T09:23:57;25.30;99.90
11934;DHT22;6026;48.784;9.198;2023-07-29T09:26:28;25.10;99.90
11934;DHT22;6026;48.784;9.198;2023-07-29T09:28:55;25.70;99.90
11934;DHT22;6026;48.784;9.198;2023-07-29T09:31:22;26.20;99.90
11934;DHT22;6026;48.784;9.198;2023-07-29T09:33:48;27.20;99.90
11934;DHT22;6026;48.784;9.198;2023-07-29T09:36:14;27.80;99.90
11934;DHT22;6026;48.784;9.198;2023-07-29T09:38:39;27.80;99.90
11934;DHT22;6026;48.784;9.198;2023-07-29T09:41:05;27.90;99.90
11934;DHT22;6026;48.784;9.198;2023-07-29T09:43:34;28.10;99.90
11934;DHT22;6026;48.784;9.198;2023-07-29T09:46:01;27.40;99.90
11934;DHT22;6026;48.784;9.198;2023-07-29T09:48:27;27.00;99.90
11934;DHT22;6026;48.784;9.198;2023-07-29T09:50:56;26.80;99.90
11934;DHT22;6026;48.784;9.198;2023-07-29T09:53:22;26.60;99.90
11934;DHT22;6026;48.784;9.198;2023-07-29T09:55:48;26.80;99.90
11934;DHT22;6026;48.784;9.198;2023-07-29T09:58:19;27.00;99.90
11934;DHT22;6026;48.784;9.198;2023-07-29T10:00:51;27.30;99.90
11934;DHT22;6026;48.784;9.198;2023-07-29T10:03:18;26.90;99.90
11934;DHT22;6026;48.784;9.198;2023-07-29T10:05:45;27.20;99.90
11934;DHT22;6026;48.784;9.198;2023-07-29T10:08:13;28.30;99.90
11934;DHT22;6026;48.784;9.198;2023-07-29T10:10:42;30.00;99.90
11934;DHT22;6026;48.784;9.198;2023-07-29T10:13:09;31.10;99.90
11934;DHT22;6026;48.784;9.198;2023-07-29T10:15:35;32.00;99.90
11934;DHT22;6026;48.784;9.198;2023-07-29T10:18:02;31.40;99.90
11934;DHT22;6026;48.784;9.198;2023-07-29T10:20:30;31.30;99.90
11934;DHT22;6026;48.784;9.198;2023-07-29T10:22:58;30.70;99.90
11934;DHT22;6026;48.784;9.198;2023-07-29T10:25:25;29.90;99.90
11934;DHT22;6026;48.784;9.198;2023-07-29T10:28:04;29.00;99.90
11934;DHT22;6026;48.784;9.198;2023-07-29T10:30:30;28.70;99.90
11934;DHT22;6026;48.784;9.198;2023-07-29T10:32:58;28.30;99.90
11934;DHT22;6026;48.784;9.198;2023-07-29T10:35:24;27.70;99.90
11934;DHT22;6026;48.784;9.198;2023-07-29T10:37:51;27.00;99.90
11934;DHT22;6026;48.784;9.198;2023-07-29T10:40:18;26.30;99.90
11934;DHT22;6026;48.784;9.198;2023-07-29T10:43:09;25.90;99.90
11934;DHT22;6026;48.784;9.198;2023-07-29T10:45:40;25.60;99.90
11934;DHT22;6026;48.784;9.198;2023-07-29T10:50:36;25.40;99.90
11934;DHT22;6026;48.784;9.198;2023-07-29T10:53:01;25.30;99.90
11934;DHT22;6026;48.784;9.198;2023-07-29T10:55:30;25.20;99.90
11934;DHT22;6026;48.784;9.198;2023-07-29T10:58:15;25.20;99.90
11934;DHT22;6026;48.784;9.198;2023-07-29T11:00:45;25.70;99.90
11934;DHT22;6026;48.784;9.198;2023-07-29T11:03:12;26.30;99.90
11934;DHT22;6026;48.784;9.198;2023-07-29T11:05:44;26.90;99.90
11934;DHT22;6026;48.784;9.198;2023-07-29T11:08:30;27.70;99.90
11934;DHT22;6026;48.784;9.198;2023-07-29T11:13:26;29.00;99.90
11934;DHT22;6026;48.784;9.198;2023-07-29T11:15:53;29.70;99.90
11934;DHT22;6026;48.784;9.198;2023-07-29T11:18:20;30.00;99.90
11934;DHT22;6026;48.784;9.198;2023-07-29T11:20:46;30.40;99.90
11934;DHT22;6026;48.784;9.198;2023-07-29T11:23:15;30.50;99.90
11934;DHT22;6026;48.784;9.198;2023-07-29T11:25:40;30.40;99.90
11934;DHT22;6026;48.784;9.198;2023-07-29T11:28:06;30.40;99.90
11934;DHT22;6026;48.784;9.198;2023-07-29T11:30:32;30.30;99.90
11934;DHT22;6026;48.784;9.198;2023-07-29T11:32:59;29.90;99.90
11934;DHT22;6026;48.784;9.198;2023-07-29T11:35:25;29.80;99.90
11934;DHT22;6026;48.784;9.198;2023-07-29T11:37:54;29.20;99.90
11934;DHT22;6026;48.784;9.198;2023-07-29T11:40:21;28.60;99.90
11934;DHT22;6026;48.784;9.198;2023-07-29T11:42:48;28.30;99.90
11934;DHT22;6026;48.784;9.198;2023-07-29T11:45:18;28.20;99.90
11934;DHT22;6026;48.784;9.198;2023-07-29T11:47:44;28.00;99.90
11934;DHT22;6026;48.784;9.198;2023-07-29T11:50:11;27.80;99.90
11934;DHT22;6026;48.784;9.198;2023-07-29T11:52:41;27.70;99.90
11934;DHT22;6026;48.784;9.198;2023-07-29T11:55:08;27.80;99.90
11934;DHT22;6026;48.784;9.198;2023-07-29T11:57:37;28.00;99.90
11934;DHT22;6026;48.784;9.198;2023-07-29T12:00:04;28.10;99.90
11934;DHT22;6026;48.784;9.198;2023-07-29T12:02:32;28.00;99.90
11934;DHT22;6026;48.784;9.198;2023-07-29T12:04:58;28.10;99.90
11934;DHT22;6026;48.784;9.198;2023-07-29T12:07:24;28.30;99.90
11934;DHT22;6026;48.784;9.198;2023-07-29T12:09:50;28.30;99.90
11934;DHT22;6026;48.784;9.198;2023-07-29T12:12:16;28.30;99.90
11934;DHT22;6026;48.784;9.198;2023-07-29T12:14:45;28.30;99.90
11934;DHT22;6026;48.784;9.198;2023-07-29T12:17:12;28.30;99.90
11934;DHT22;6026;48.784;9.198;2023-07-29T12:19:39;28.50;99.90
11934;DHT22;6026;48.784;9.198;2023-07-29T12:22:06;28.60;99.90
11934;DHT22;6026;48.784;9.198;2023-07-29T12:24:33;28.50;99.90
11934;DHT22;6026;48.784;9.198;2023-07-29T12:27:00;28.50;99.90
11934;DHT22;6026;48.784;9.198;2023-07-29T12:29:26;28.40;99.90
11934;DHT22;6026;48.784;9.198;2023-07-29T12:32:03;28.50;99.90
11934;DHT22;6026;48.784;9.198;2023-07-29T12:34:30;28.60;99.90
11934;DHT22;6026;48.784;9.198;2023-07-29T12:36:58;28.60;99.90
11934;DHT22;6026;48.784;9.198;2023-07-29T12:39:29;28.50;99.90
11934;DHT22;6026;48.784;9.198;2023-07-29T12:41:56;28.40;99.90
11934;DHT22;6026;48.784;9.198;2023-07-29T12:44:23;28.30;99.90
11934;DHT22;6026;48.784;9.198;2023-07-29T12:46:49;28.40;99.90
11934;DHT22;6026;48.784;9.198;2023-07-29T12:49:15;28.60;99.90
11934;DHT22;6026;48.784;9.198;2023-07-29T12:51:41;28.90;99.90
11934;DHT22;6026;48.784;9.198;2023-07-29T12:54:06;29.20;99.90
11934;DHT22;6026;48.784;9.198;2023-07-29T12:56:33;29.20;99.90
11934;DHT22;6026;48.784;9.198;2023-07-29T12:59:00;29.00;99.90
11934;DHT22;6026;48.784;9.198;2023-07-29T13:01:26;29.00;99.90
11934;DHT22;6026;48.784;9.198;2023-07-29T13:03:52;28.90;99.90
11934;DHT22;6026;48.784;9.198;2023-07-29T13:06:18;28.90;99.90
11934;DHT22;6026;48.784;9.198;2023-07-29T13:08:44;28.90;99.90
11934;DHT22;6026;48.784;9.198;2023-07-29T13:11:10;28.90;99.90
11934;DHT22;6026;48.784;9.198;2023-07-29T13:13:35;28.70;99.90
11934;DHT22;6026;48.784;9.198;2023-07-29T13:16:01;28.70;99.90
11934;DHT22;6026;48.784;9.198;2023-07-29T13:18:27;28.50;99.90
11934;DHT22;6026;48.784;9.198;2023-07-29T13:20:52;28.50;99.90
11934;DHT22;6026;48.784;9.198;2023-07-29T13:23:18;28.60;99.90
11934;DHT22;6026;48.784;9.198;2023-07-29T13:25:44;28.60;99.90
11934;DHT22;6026;48.784;9.198;2023-07-29T13:28:10;28.50;99.90
11934;DHT22;6026;48.784;9.198;2023-07-29T13:30:36;28.30;99.90
11934;DHT22;6026;48.784;9.198;2023-07-29T13:33:02;28.00;99.90
11934;DHT22;6026;48.784;9.198;2023-07-29T13:35:28;27.90;99.90
11934;DHT22;6026;48.784;9.198;2023-07-29T13:37:53;28.00;99.90
11934;DHT22;6026;48.784;9.198;2023-07-29T13:40:19;27.80;99.90
11934;DHT22;6026;48.784;9.198;2023-07-29T13:42:45;27.50;99.90
11934;DHT22;6026;48.784;9.198;2023-07-29T13:45:10;27.50;99.90
11934;DHT22;6026;48.784;9.198;2023-07-29T13:47:36;27.50;99.90
11934;DHT22;6026;48.784;9.198;2023-07-29T13:50:02;27.60;99.90
11934;DHT22;6026;48.784;9.198;2023-07-29T13:52:28;27.60;99.90
11934;DHT22;6026;48.784;9.198;2023-07-29T13:54:54;27.60;99.90
11934;DHT22;6026;48.784;9.198;2023-07-29T13:57:19;27.50;99.90
11934;DHT22;6026;48.784;9.198;2023-07-29T13:59:45;27.50;99.90
11934;DHT22;6026;48.784;9.198;2023-07-29T14:02:11;27.60;99.90
11934;DHT22;6026;48.784;9.198;2023-07-29T14:04:36;27.50;99.90
11934;DHT22;6026;48.784;9.198;2023-07-29T14:07:02;27.50;99.90
11934;DHT22;6026;48.784;9.198;2023-07-29T14:09:27;27.60;99.90
11934;DHT22;6026;48.784;9.198;2023-07-29T14:11:56;27.60;99.90
11934;DHT22;6026;48.784;9.198;2023-07-29T14:14:22;27.70;99.90
11934;DHT22;6026;48.784;9.198;2023-07-29T14:16:47;27.80;99.90
11934;DHT22;6026;48.784;9.198;2023-07-29T14:19:14;27.90;99.90
11934;DHT22;6026;48.784;9.198;2023-07-29T14:21:39;28.00;99.90
11934;DHT22;6026;48.784;9.198;2023-07-29T14:24:05;28.10;99.90
11934;DHT22;6026;48.784;9.198;2023-07-29T14:26:31;28.20;99.90
11934;DHT22;6026;48.784;9.198;2023-07-29T14:28:56;28.40;99.90
11934;DHT22;6026;48.784;9.198;2023-07-29T14:31:22;28.30;99.90
11934;DHT22;6026;48.784;9.198;2023-07-29T14:33:48;28.30;99.90
11934;DHT22;6026;48.784;9.198;2023-07-29T14:36:15;28.20;99.90
11934;DHT22;6026;48.784;9.198;2023-07-29T14:38:41;28.20;99.90
11934;DHT22;6026;48.784;9.198;2023-07-29T14:41:07;28.10;99.90
11934;DHT22;6026;48.784;9.198;2023-07-29T14:43:33;28.10;99.90
11934;DHT22;6026;48.784;9.198;2023-07-29T14:45:58;27.90;99.90
11934;DHT22;6026;48.784;9.198;2023-07-29T14:48:24;27.60;99.90
11934;DHT22;6026;48.784;9.198;2023-07-29T14:50:49;27.50;99.90
11934;DHT22;6026;48.784;9.198;2023-07-29T14:53:15;27.40;99.90
11934;DHT22;6026;48.784;9.198;2023-07-29T14:55:41;27.30;99.90
11934;DHT22;6026;48.784;9.198;2023-07-29T14:58:06;27.10;99.90
11934;DHT22;6026;48.784;9.198;2023-07-29T15:00:32;27.00;99.90
11934;DHT22;6026;48.784;9.198;2023-07-29T15:02:58;26.80;99.90
11934;DHT22;6026;48.784;9.198;2023-07-29T15:05:24;26.80;99.90
11934;DHT22;6026;48.784;9.198;2023-07-29T15:07:49;26.90;99.90
11934;DHT22;6026;48.784;9.198;2023-07-29T15:10:15;27.00;99.90
11934;DHT22;6026;48.784;9.198;2023-07-29T15:12:41;27.00;99.90
11934;DHT22;6026;48.784;9.198;2023-07-29T15:15:08;27.20;99.90
11934;DHT22;6026;48.784;9.198;2023-07-29T15:17:34;27.20;99.90
11934;DHT22;6026;48.784;9.198;2023-07-29T15:19:59;27.20;99.90
11934;DHT22;6026;48.784;9.198;2023-07-29T15:22:25;27.10;99.90
11934;DHT22;6026;48.784;9.198;2023-07-29T15:24:50;27.10;99.90
11934;DHT22;6026;48.784;9.198;2023-07-29T15:27:16;27.20;99.90
11934;DHT22;6026;48.784;9.198;2023-07-29T15:29:42;27.10;99.90
11934;DHT22;6026;48.784;9.198;2023-07-29T15:32:07;27.20;99.90
11934;DHT22;6026;48.784;9.198;2023-07-29T15:34:33;27.10;99.90
11934;DHT22;6026;48.784;9.198;2023-07-29T15:36:59;27.00;99.90
11934;DHT22;6026;48.784;9.198;2023-07-29T15:39:25;27.20;99.90
11934;DHT22;6026;48.784;9.198;2023-07-29T15:41:51;27.30;99.90
11934;DHT22;6026;48.784;9.198;2023-07-29T15:44:17;27.40;99.90
11934;DHT22;6026;48.784;9.198;2023-07-29T15:46:43;27.50;99.90
11934;DHT22;6026;48.784;9.198;2023-07-29T15:49:09;27.60;99.90
11934;DHT22;6026;48.784;9.198;2023-07-29T15:51:35;27.60;99.90
11934;DHT22;6026;48.784;9.198;2023-07-29T15:54:01;27.50;99.90